Suederoog — ZDHC8 — position and weather

sailwx.info

Track history (hours):
 
Tides and Currents Weather Stations Pressure Air Temp Water Temp Dewpoint Dewpoint Depression Visibility Wind Speed Wind Dir Waves Ship Positions

Suederoog

Last reported at 2014-Sep-20 21:32 UTC. Time now 2014-Sep-21 06:05 UTC.
Position N 54°01' E 009°18'.

Length 161 m; draft 9.4 m.

Type: Ship (hazmat cat A). MMSI: 236300000.

Date/timePositionNaut miles runAvg speedWind from/ knotsBaromVisibWave heightAir tempDewpointWater temp
2014-Sep-20 21:32N 54°01' E 009°18'5 5.1
2014-Sep-20 20:33N 53°57' E 009°14'2 1.5
2014-Sep-20 19:32N 53°55' E 009°12'3 2.6
2014-Sep-20 18:32N 53°54' E 009°09'1 1.4
2014-Sep-20 17:33N 53°53' E 009°07'1010.4
2014-Sep-20 16:33N 53°48' E 009°23'1514.8
2014-Sep-20 15:33N 53°36' E 009°36'1211.6
2014-Sep-20 14:33N 53°33' E 009°55'1 1.2
2014-Sep-20 13:32N 53°32' E 009°57'0 0.0
2014-Sep-20 12:32N 53°32' E 009°57'0 0.0
2014-Sep-20 11:31N 53°32' E 009°57'0 0.0
2014-Sep-20 10:31N 53°32' E 009°57'0 0.0
2014-Sep-20 09:31N 53°32' E 009°57'0 0.0
2014-Sep-20 08:31N 53°32' E 009°57'0 0.0
2014-Sep-20 07:33N 53°32' E 009°57'0 0.0
2014-Sep-20 06:33N 53°32' E 009°57'0 0.0
2014-Sep-20 05:30N 53°32' E 009°57'0 0.0
2014-Sep-20 04:31N 53°32' E 009°57'0 0.0
2014-Sep-20 03:34N 53°32' E 009°57'0 0.0
2014-Sep-20 02:31N 53°32' E 009°57'0 0.0
2014-Sep-20 01:31N 53°32' E 009°57'0 0.0
2014-Sep-20 00:33N 53°32' E 009°57'0 0.0
2014-Sep-19 23:33N 53°32' E 009°57'0 0.0
2014-Sep-19 22:30N 53°32' E 009°57'0 0.0
2014-Sep-19 21:30N 53°32' E 009°57'0 0.0
2014-Sep-19 20:30N 53°32' E 009°57'0 0.0
2014-Sep-19 19:33N 53°32' E 009°57'0 0.0
2014-Sep-19 18:33N 53°32' E 009°57'0 0.0
2014-Sep-19 17:33N 53°32' E 009°57'0 0.1
2014-Sep-19 16:33N 53°32' E 009°57'1 1.1
2014-Sep-19 15:33N 53°32' E 009°56'0 0.0
2014-Sep-19 14:32N 53°32' E 009°56'0 0.0
2014-Sep-19 13:29N 53°32' E 009°56'0 0.0
2014-Sep-19 12:32N 53°32' E 009°56'0 0.0
2014-Sep-19 11:33N 53°32' E 009°56'0 0.0
2014-Sep-19 10:32N 53°32' E 009°56'0 0.0
2014-Sep-19 09:31N 53°32' E 009°56'0 0.0
2014-Sep-19 08:28N 53°32' E 009°56'0 0.0
2014-Sep-19 07:32N 53°32' E 009°56'0 0.0
2014-Sep-19 06:30N 53°32' E 009°56'0 0.0
2014-Sep-19 05:30N 53°32' E 009°56'0 0.0
2014-Sep-19 04:31N 53°32' E 009°56'0 0.0
2014-Sep-19 03:32N 53°32' E 009°56'0 0.0
2014-Sep-19 02:26N 53°32' E 009°56'0 0.0
2014-Sep-19 01:32N 53°32' E 009°56'0 0.0
2014-Sep-19 00:29N 53°32' E 009°56'0 0.0
2014-Sep-18 23:32N 53°32' E 009°56'0 0.0
2014-Sep-18 22:28N 53°32' E 009°56'1 1.1
2014-Sep-18 21:34N 53°32' E 009°54'9 9.4
2014-Sep-18 20:33N 53°34' E 009°39'1515.2
2014-Sep-18 19:34N 53°46' E 009°23'1312.9
2014-Sep-18 18:33N 53°52' E 009°04'1514.7
2014-Sep-18 17:33N 53°56' E 008°40'1716.8
2014-Sep-18 16:33N 53°59' E 008°12'1514.9
2014-Sep-18 15:33N 54°05' E 007°48'1716.6
2014-Sep-18 14:33N 54°14' E 007°24'1817.7
2014-Sep-18 13:34N 54°30' E 007°12'2217.2
2014-Sep-18 12:18N 54°51' E 007°06'1317.3
2014-Sep-18 11:33N 55°04' E 007°06'1717.1
2014-Sep-18 10:32N 55°21' E 007°06'1716.7
2014-Sep-18 09:33N 55°38' E 007°08'1717.5
2014-Sep-18 08:33N 55°54' E 007°17'10516.6
2014-Sep-18 02:13N 57°26' E 008°51'3617.6
2014-Sep-18 00:12N 57°44' E 009°49'1318.1
2014-Sep-17 23:29N 57°48' E 010°12'2217.8
2014-Sep-17 22:16N 57°45' E 010°53'1317.8
2014-Sep-17 21:33N 57°37' E 011°10'1818.1
2014-Sep-17 20:34N 57°22' E 011°30'1918.5
2014-Sep-17 19:33N 57°05' E 011°42'1817.9
2014-Sep-17 18:33N 56°48' E 011°55'1716.8
2014-Sep-17 17:33N 56°33' E 011°42'11914.8
2014-Sep-17 09:33N 54°36' E 011°10'1817.9
2014-Sep-17 08:33N 54°28' E 011°38'1817.6
2014-Sep-17 07:34N 54°26' E 012°08'1716.5
2014-Sep-17 06:33N 54°40' E 012°25'1717.2
2014-Sep-17 05:33N 54°48' E 012°51'1717.4
2014-Sep-17 04:33N 54°55' E 013°19'1717.3
2014-Sep-17 03:33N 55°00' E 013°48'1616.5
2014-Sep-17 02:33N 55°10' E 014°12'1817.7
2014-Sep-17 01:34N 55°24' E 014°30'1817.5
2014-Sep-17 00:34N 55°33' E 014°56'1817.3
2014-Sep-16 23:32N 55°42' E 015°23'1717.6
2014-Sep-16 22:33N 55°51' E 015°50'1817.7
2014-Sep-16 21:33N 55°60' E 016°17'32417.1
2014-Sep-16 02:33N 59°41' E 023°43'1717.4
2014-Sep-16 01:33N 59°46' E 024°16'1717.4
2014-Sep-16 00:33N 59°50' E 024°49'5117.1
2014-Sep-15 21:33N 60°07' E 026°26'1615.7
2014-Sep-15 20:33N 60°16' E 026°52'10 9.6
2014-Sep-15 19:33N 60°25' E 026°55'0 0.0
2014-Sep-15 18:31N 60°25' E 026°55'0 0.0
2014-Sep-15 17:28N 60°25' E 026°55'0 0.0
2014-Sep-15 16:31N 60°25' E 026°55'0 0.0
2014-Sep-15 15:32N 60°25' E 026°55'0 0.0
2014-Sep-15 14:32N 60°25' E 026°55'0 0.0
2014-Sep-15 13:32N 60°25' E 026°55'0 0.0
2014-Sep-15 12:32N 60°25' E 026°55'0 0.0
2014-Sep-15 11:32N 60°25' E 026°55'0 0.0
2014-Sep-15 10:32N 60°25' E 026°55'0 0.0
2014-Sep-15 09:32N 60°25' E 026°55'0 0.0
2014-Sep-15 08:32N 60°25' E 026°55'0 0.0
2014-Sep-15 07:32N 60°25' E 026°55'0 0.0
2014-Sep-15 06:33N 60°25' E 026°55'0 0.0
2014-Sep-15 05:33N 60°25' E 026°55'0 0.0
2014-Sep-15 04:33N 60°25' E 026°55'0 0.0
2014-Sep-15 03:31N 60°25' E 026°55'0 0.0
2014-Sep-15 02:31N 60°25' E 026°55'0 0.0
2014-Sep-15 01:31N 60°25' E 026°55'0 0.0
2014-Sep-15 00:31N 60°25' E 026°55'0 0.0
2014-Sep-14 23:31N 60°25' E 026°55'0 0.0
2014-Sep-14 22:31N 60°25' E 026°55'0 0.0
2014-Sep-14 21:31N 60°25' E 026°55'0 0.0
2014-Sep-14 20:31N 60°25' E 026°55'0 0.0
2014-Sep-14 19:31N 60°25' E 026°55'0 0.0
2014-Sep-14 18:31N 60°25' E 026°55'0 0.0
2014-Sep-14 17:31N 60°25' E 026°55'0 0.0
2014-Sep-14 16:31N 60°25' E 026°55'0 0.0
2014-Sep-14 15:31N 60°25' E 026°55'0 0.0
2014-Sep-14 14:31N 60°25' E 026°55'0 0.0
2014-Sep-14 13:31N 60°25' E 026°55'0 0.0
2014-Sep-14 12:31N 60°25' E 026°55'0 0.0
2014-Sep-14 11:31N 60°25' E 026°55'0 0.0
2014-Sep-14 10:31N 60°25' E 026°55'0 0.0
2014-Sep-14 09:31N 60°25' E 026°55'0 0.0
2014-Sep-14 08:31N 60°25' E 026°55'0 0.0
2014-Sep-14 07:31N 60°25' E 026°55'0 0.0
2014-Sep-14 06:31N 60°25' E 026°55'0 0.0
2014-Sep-14 05:31N 60°25' E 026°55'0 0.0
2014-Sep-14 04:31N 60°25' E 026°55'0 0.0
2014-Sep-14 03:31N 60°25' E 026°55'0 0.0
2014-Sep-14 02:31N 60°25' E 026°55'0 0.0
2014-Sep-14 01:31N 60°25' E 026°55'0 0.0
2014-Sep-13 21:31N 60°25' E 026°55'0 0.0
2014-Sep-13 20:31N 60°25' E 026°55'0 0.0
2014-Sep-13 19:31N 60°25' E 026°55'0 0.0
2014-Sep-13 18:31N 60°25' E 026°55'0 0.0
2014-Sep-13 17:31N 60°25' E 026°55'0 0.0
2014-Sep-13 16:28N 60°25' E 026°55'0 0.0
2014-Sep-13 15:31N 60°25' E 026°55'0 0.0
2014-Sep-13 14:31N 60°25' E 026°55'0 0.0
2014-Sep-13 13:31N 60°25' E 026°55'0 0.0
2014-Sep-13 12:31N 60°25' E 026°55'0 0.0
2014-Sep-13 11:31N 60°25' E 026°55'0 0.0
2014-Sep-13 10:31N 60°25' E 026°55'0 0.1
2014-Sep-13 09:33N 60°25' E 026°55'8 8.3
2014-Sep-13 08:33N 60°21' E 026°40'1313.5
2014-Sep-13 07:33N 60°11' E 026°22'1110.5
2014-Sep-13 06:33N 60°04' E 026°38'10810.8
2014-Sep-12 20:33N 59°53' E 030°13'0 0.2
2014-Sep-12 19:25N 59°54' E 030°14'0 0.0
2014-Sep-12 18:31N 59°54' E 030°14'0 0.0
2014-Sep-12 17:33N 59°54' E 030°14'0 0.0
2014-Sep-12 16:33N 59°54' E 030°14'0 0.0
2014-Sep-12 15:33N 59°54' E 030°14'1 0.1
2014-Sep-12 02:31N 59°53' E 030°12'2 2.3
2014-Sep-12 01:33N 59°54' E 030°08'88 9.7
2014-Sep-11 16:32N 60°01' E 027°14'1010.3
2014-Sep-11 15:31N 59°59' E 026°53'1110.9
2014-Sep-11 14:33N 59°58' E 026°32'5711.0
2014-Sep-11 09:23N 59°45' E 024°42'1011.1
2014-Sep-11 08:30N 59°43' E 024°23'1516.1
2014-Sep-11 07:33N 59°38' E 023°55'1110.8
2014-Sep-11 06:34N 59°35' E 023°34'1210.9
2014-Sep-11 05:30N 59°32' E 023°12'  
Track history (hours):
 
Tides and Currents Weather Stations Pressure Air Temp Water Temp Dewpoint Dewpoint Depression Visibility Wind Speed Wind Dir Waves Ship Positions

Suederoog

Last reported at 2014-Sep-20 21:32 UTC. Time now 2014-Sep-21 06:05 UTC.
Position N 54°01' E 009°18'.

Length 161 m; draft 9.4 m.

Type: Ship (hazmat cat A). MMSI: 236300000.

Date/timePositionNaut miles runAvg speedWind from/ knotsBaromVisibWave heightAir tempDewpointWater temp
2014-Sep-20 21:32N 54°01' E 009°18'5 5.1
2014-Sep-20 20:33N 53°57' E 009°14'2 1.5
2014-Sep-20 19:32N 53°55' E 009°12'3 2.6
2014-Sep-20 18:32N 53°54' E 009°09'1 1.4
2014-Sep-20 17:33N 53°53' E 009°07'1010.4
2014-Sep-20 16:33N 53°48' E 009°23'1514.8
2014-Sep-20 15:33N 53°36' E 009°36'1211.6
2014-Sep-20 14:33N 53°33' E 009°55'1 1.2
2014-Sep-20 13:32N 53°32' E 009°57'0 0.0
2014-Sep-20 12:32N 53°32' E 009°57'0 0.0
2014-Sep-20 11:31N 53°32' E 009°57'0 0.0
2014-Sep-20 10:31N 53°32' E 009°57'0 0.0
2014-Sep-20 09:31N 53°32' E 009°57'0 0.0
2014-Sep-20 08:31N 53°32' E 009°57'0 0.0
2014-Sep-20 07:33N 53°32' E 009°57'0 0.0
2014-Sep-20 06:33N 53°32' E 009°57'0 0.0
2014-Sep-20 05:30N 53°32' E 009°57'0 0.0
2014-Sep-20 04:31N 53°32' E 009°57'0 0.0
2014-Sep-20 03:34N 53°32' E 009°57'0 0.0
2014-Sep-20 02:31N 53°32' E 009°57'0 0.0
2014-Sep-20 01:31N 53°32' E 009°57'0 0.0
2014-Sep-20 00:33N 53°32' E 009°57'0 0.0
2014-Sep-19 23:33N 53°32' E 009°57'0 0.0
2014-Sep-19 22:30N 53°32' E 009°57'0 0.0
2014-Sep-19 21:30N 53°32' E 009°57'0 0.0
2014-Sep-19 20:30N 53°32' E 009°57'0 0.0
2014-Sep-19 19:33N 53°32' E 009°57'0 0.0
2014-Sep-19 18:33N 53°32' E 009°57'0 0.0
2014-Sep-19 17:33N 53°32' E 009°57'0 0.1
2014-Sep-19 16:33N 53°32' E 009°57'1 1.1
2014-Sep-19 15:33N 53°32' E 009°56'0 0.0
2014-Sep-19 14:32N 53°32' E 009°56'0 0.0
2014-Sep-19 13:29N 53°32' E 009°56'0 0.0
2014-Sep-19 12:32N 53°32' E 009°56'0 0.0
2014-Sep-19 11:33N 53°32' E 009°56'0 0.0
2014-Sep-19 10:32N 53°32' E 009°56'0 0.0
2014-Sep-19 09:31N 53°32' E 009°56'0 0.0
2014-Sep-19 08:28N 53°32' E 009°56'0 0.0
2014-Sep-19 07:32N 53°32' E 009°56'0 0.0
2014-Sep-19 06:30N 53°32' E 009°56'0 0.0
2014-Sep-19 05:30N 53°32' E 009°56'0 0.0
2014-Sep-19 04:31N 53°32' E 009°56'0 0.0
2014-Sep-19 03:32N 53°32' E 009°56'0 0.0
2014-Sep-19 02:26N 53°32' E 009°56'0 0.0
2014-Sep-19 01:32N 53°32' E 009°56'0 0.0
2014-Sep-19 00:29N 53°32' E 009°56'0 0.0
2014-Sep-18 23:32N 53°32' E 009°56'0 0.0
2014-Sep-18 22:28N 53°32' E 009°56'1 1.1
2014-Sep-18 21:34N 53°32' E 009°54'9 9.4
2014-Sep-18 20:33N 53°34' E 009°39'1515.2
2014-Sep-18 19:34N 53°46' E 009°23'1312.9
2014-Sep-18 18:33N 53°52' E 009°04'1514.7
2014-Sep-18 17:33N 53°56' E 008°40'1716.8
2014-Sep-18 16:33N 53°59' E 008°12'1514.9
2014-Sep-18 15:33N 54°05' E 007°48'1716.6
2014-Sep-18 14:33N 54°14' E 007°24'1817.7
2014-Sep-18 13:34N 54°30' E 007°12'2217.2
2014-Sep-18 12:18N 54°51' E 007°06'1317.3
2014-Sep-18 11:33N 55°04' E 007°06'1717.1
2014-Sep-18 10:32N 55°21' E 007°06'1716.7
2014-Sep-18 09:33N 55°38' E 007°08'1717.5
2014-Sep-18 08:33N 55°54' E 007°17'10516.6
2014-Sep-18 02:13N 57°26' E 008°51'3617.6
2014-Sep-18 00:12N 57°44' E 009°49'1318.1
2014-Sep-17 23:29N 57°48' E 010°12'2217.8
2014-Sep-17 22:16N 57°45' E 010°53'1317.8
2014-Sep-17 21:33N 57°37' E 011°10'1818.1
2014-Sep-17 20:34N 57°22' E 011°30'1918.5
2014-Sep-17 19:33N 57°05' E 011°42'1817.9
2014-Sep-17 18:33N 56°48' E 011°55'1716.8
2014-Sep-17 17:33N 56°33' E 011°42'11914.8
2014-Sep-17 09:33N 54°36' E 011°10'1817.9
2014-Sep-17 08:33N 54°28' E 011°38'1817.6
2014-Sep-17 07:34N 54°26' E 012°08'1716.5
2014-Sep-17 06:33N 54°40' E 012°25'1717.2
2014-Sep-17 05:33N 54°48' E 012°51'1717.4
2014-Sep-17 04:33N 54°55' E 013°19'1717.3
2014-Sep-17 03:33N 55°00' E 013°48'1616.5
2014-Sep-17 02:33N 55°10' E 014°12'1817.7
2014-Sep-17 01:34N 55°24' E 014°30'1817.5
2014-Sep-17 00:34N 55°33' E 014°56'1817.3
2014-Sep-16 23:32N 55°42' E 015°23'1717.6
2014-Sep-16 22:33N 55°51' E 015°50'1817.7
2014-Sep-16 21:33N 55°60' E 016°17'32417.1
2014-Sep-16 02:33N 59°41' E 023°43'1717.4
2014-Sep-16 01:33N 59°46' E 024°16'1717.4
2014-Sep-16 00:33N 59°50' E 024°49'5117.1
2014-Sep-15 21:33N 60°07' E 026°26'1615.7
2014-Sep-15 20:33N 60°16' E 026°52'10 9.6
2014-Sep-15 19:33N 60°25' E 026°55'0 0.0
2014-Sep-15 18:31N 60°25' E 026°55'0 0.0
2014-Sep-15 17:28N 60°25' E 026°55'0 0.0
2014-Sep-15 16:31N 60°25' E 026°55'0 0.0
2014-Sep-15 15:32N 60°25' E 026°55'0 0.0
2014-Sep-15 14:32N 60°25' E 026°55'0 0.0
2014-Sep-15 13:32N 60°25' E 026°55'0 0.0
2014-Sep-15 12:32N 60°25' E 026°55'0 0.0
2014-Sep-15 11:32N 60°25' E 026°55'0 0.0
2014-Sep-15 10:32N 60°25' E 026°55'0 0.0
2014-Sep-15 09:32N 60°25' E 026°55'0 0.0
2014-Sep-15 08:32N 60°25' E 026°55'0 0.0
2014-Sep-15 07:32N 60°25' E 026°55'0 0.0
2014-Sep-15 06:33N 60°25' E 026°55'0 0.0
2014-Sep-15 05:33N 60°25' E 026°55'0 0.0
2014-Sep-15 04:33N 60°25' E 026°55'0 0.0
2014-Sep-15 03:31N 60°25' E 026°55'0 0.0
2014-Sep-15 02:31N 60°25' E 026°55'0 0.0
2014-Sep-15 01:31N 60°25' E 026°55'0 0.0
2014-Sep-15 00:31N 60°25' E 026°55'0 0.0
2014-Sep-14 23:31N 60°25' E 026°55'0 0.0
2014-Sep-14 22:31N 60°25' E 026°55'0 0.0
2014-Sep-14 21:31N 60°25' E 026°55'0 0.0
2014-Sep-14 20:31N 60°25' E 026°55'0 0.0
2014-Sep-14 19:31N 60°25' E 026°55'0 0.0
2014-Sep-14 18:31N 60°25' E 026°55'0 0.0
2014-Sep-14 17:31N 60°25' E 026°55'0 0.0
2014-Sep-14 16:31N 60°25' E 026°55'0 0.0
2014-Sep-14 15:31N 60°25' E 026°55'0 0.0
2014-Sep-14 14:31N 60°25' E 026°55'0 0.0
2014-Sep-14 13:31N 60°25' E 026°55'0 0.0
2014-Sep-14 12:31N 60°25' E 026°55'0 0.0
2014-Sep-14 11:31N 60°25' E 026°55'0 0.0
2014-Sep-14 10:31N 60°25' E 026°55'0 0.0
2014-Sep-14 09:31N 60°25' E 026°55'0 0.0
2014-Sep-14 08:31N 60°25' E 026°55'0 0.0
2014-Sep-14 07:31N 60°25' E 026°55'0 0.0
2014-Sep-14 06:31N 60°25' E 026°55'0 0.0
2014-Sep-14 05:31N 60°25' E 026°55'0 0.0
2014-Sep-14 04:31N 60°25' E 026°55'0 0.0
2014-Sep-14 03:31N 60°25' E 026°55'0 0.0
2014-Sep-14 02:31N 60°25' E 026°55'0 0.0
2014-Sep-14 01:31N 60°25' E 026°55'0 0.0
2014-Sep-13 21:31N 60°25' E 026°55'0 0.0
2014-Sep-13 20:31N 60°25' E 026°55'0 0.0
2014-Sep-13 19:31N 60°25' E 026°55'0 0.0
2014-Sep-13 18:31N 60°25' E 026°55'0 0.0
2014-Sep-13 17:31N 60°25' E 026°55'0 0.0
2014-Sep-13 16:28N 60°25' E 026°55'0 0.0
2014-Sep-13 15:31N 60°25' E 026°55'0 0.0
2014-Sep-13 14:31N 60°25' E 026°55'0 0.0
2014-Sep-13 13:31N 60°25' E 026°55'0 0.0
2014-Sep-13 12:31N 60°25' E 026°55'0 0.0
2014-Sep-13 11:31N 60°25' E 026°55'0 0.0
2014-Sep-13 10:31N 60°25' E 026°55'0 0.1
2014-Sep-13 09:33N 60°25' E 026°55'8 8.3
2014-Sep-13 08:33N 60°21' E 026°40'1313.5
2014-Sep-13 07:33N 60°11' E 026°22'1110.5
2014-Sep-13 06:33N 60°04' E 026°38'10810.8
2014-Sep-12 20:33N 59°53' E 030°13'0 0.2
2014-Sep-12 19:25N 59°54' E 030°14'0 0.0
2014-Sep-12 18:31N 59°54' E 030°14'0 0.0
2014-Sep-12 17:33N 59°54' E 030°14'0 0.0
2014-Sep-12 16:33N 59°54' E 030°14'0 0.0
2014-Sep-12 15:33N 59°54' E 030°14'1 0.1
2014-Sep-12 02:31N 59°53' E 030°12'2 2.3
2014-Sep-12 01:33N 59°54' E 030°08'88 9.7
2014-Sep-11 16:32N 60°01' E 027°14'1010.3
2014-Sep-11 15:31N 59°59' E 026°53'1110.9
2014-Sep-11 14:33N 59°58' E 026°32'5711.0
2014-Sep-11 09:23N 59°45' E 024°42'1011.1
2014-Sep-11 08:30N 59°43' E 024°23'1516.1
2014-Sep-11 07:33N 59°38' E 023°55'1110.8
2014-Sep-11 06:34N 59°35' E 023°34'1210.9
2014-Sep-11 05:30N 59°32' E 023°12'  

Dump ship's entire track history